createdAt,value
2023-03-22T00:03:59.196Z,412.00
2023-03-22T00:07:59.305Z,416.00
2023-03-22T00:11:59.509Z,418.00
2023-03-22T00:15:59.844Z,416.00
2023-03-22T00:19:59.879Z,416.00
2023-03-22T00:24:00.044Z,419.00
2023-03-22T00:28:00.183Z,420.00
2023-03-22T00:32:00.364Z,419.00
2023-03-22T00:36:00.570Z,421.00
2023-03-22T00:40:00.679Z,420.00
2023-03-22T00:44:00.892Z,418.00
2023-03-22T00:48:01.111Z,418.00
2023-03-22T00:52:01.333Z,419.00
2023-03-22T00:56:01.489Z,417.00
2023-03-22T01:00:01.624Z,421.00
2023-03-22T01:04:01.851Z,418.00
2023-03-22T01:08:02.025Z,417.00
2023-03-22T01:12:02.211Z,417.00
2023-03-22T01:16:02.407Z,419.00
2023-03-22T01:20:02.576Z,423.00
2023-03-22T01:24:02.772Z,419.00
2023-03-22T01:28:02.981Z,420.00
2023-03-22T01:32:03.164Z,419.00
2023-03-22T01:36:03.365Z,419.00
2023-03-22T01:40:03.527Z,414.00
2023-03-22T01:44:03.696Z,417.00
2023-03-22T01:48:03.924Z,414.00
2023-03-22T01:52:04.085Z,409.00
2023-03-22T01:56:04.248Z,413.00
2023-03-22T02:00:04.445Z,415.00
2023-03-22T02:04:04.658Z,416.00
2023-03-22T02:08:04.829Z,419.00
2023-03-22T02:12:05.030Z,419.00
2023-03-22T02:16:05.202Z,419.00
2023-03-22T02:20:05.401Z,418.00
2023-03-22T02:24:05.620Z,417.00
2023-03-22T02:28:05.811Z,410.00
2023-03-22T02:32:05.979Z,411.00
2023-03-22T02:36:06.260Z,412.00
2023-03-22T02:40:06.340Z,411.00
2023-03-22T02:44:06.528Z,413.00
2023-03-22T02:48:06.749Z,415.00
2023-03-22T02:52:06.890Z,416.00
2023-03-22T02:56:07.102Z,413.00
2023-03-22T03:00:07.296Z,415.00
2023-03-22T03:04:07.455Z,416.00
2023-03-22T03:08:07.645Z,418.00
2023-03-22T03:12:07.817Z,414.00
2023-03-22T03:16:08.210Z,413.00
2023-03-22T03:20:08.221Z,416.00
2023-03-22T03:24:08.409Z,412.00
2023-03-22T03:28:08.573Z,422.00
2023-03-22T03:32:08.845Z,418.00
2023-03-22T03:36:08.969Z,419.00
2023-03-22T03:40:09.164Z,419.00
2023-03-22T03:44:09.386Z,420.00
2023-03-22T03:48:09.445Z,420.00
2023-03-22T03:52:09.287Z,423.00
2023-03-22T03:56:09.269Z,424.00
2023-03-22T04:00:09.243Z,420.00
2023-03-22T04:04:09.224Z,419.00
2023-03-22T04:08:09.148Z,414.00
2023-03-22T04:12:09.136Z,417.00
2023-03-22T04:16:09.114Z,415.00
2023-03-22T04:20:09.030Z,417.00
2023-03-22T04:24:09.015Z,418.00
2023-03-22T04:28:09.054Z,420.00
2023-03-22T04:32:09.184Z,415.00
2023-03-22T04:36:09.403Z,415.00
2023-03-22T04:40:09.540Z,417.00
2023-03-22T04:44:09.491Z,416.00
2023-03-22T04:48:09.610Z,415.00
2023-03-22T04:52:09.452Z,416.00
2023-03-22T04:56:09.450Z,411.00
2023-03-22T05:00:09.369Z,414.00
2023-03-22T05:04:09.344Z,413.00
2023-03-22T05:08:09.338Z,416.00
2023-03-22T05:12:09.259Z,415.00
2023-03-22T05:16:09.257Z,419.00
2023-03-22T05:20:09.218Z,423.00
2023-03-22T05:24:09.158Z,427.00
2023-03-22T05:28:09.360Z,429.00
2023-03-22T05:32:09.545Z,427.00
2023-03-22T05:36:09.777Z,432.00
2023-03-22T05:40:09.935Z,428.00
2023-03-22T05:44:10.119Z,428.00
2023-03-22T05:48:10.478Z,430.00
2023-03-22T05:52:10.302Z,428.00
2023-03-22T05:56:10.281Z,427.00
2023-03-22T06:00:10.225Z,427.00
2023-03-22T06:04:10.182Z,430.00
2023-03-22T06:08:10.155Z,425.00
2023-03-22T06:12:10.119Z,430.00
2023-03-22T06:16:10.166Z,432.00
2023-03-22T06:20:10.042Z,432.00
2023-03-22T06:24:10.021Z,430.00
2023-03-22T06:28:09.971Z,427.00
2023-03-22T06:32:09.969Z,431.00
2023-03-22T06:36:10.338Z,564.00
2023-03-22T06:40:09.853Z,625.00
2023-03-22T06:44:09.826Z,645.00
2023-03-22T06:48:10.016Z,659.00
2023-03-22T06:52:10.086Z,739.00
2023-03-22T06:56:10.212Z,763.00
2023-03-22T07:00:10.337Z,809.00
2023-03-22T07:04:10.504Z,813.00
2023-03-22T07:08:10.624Z,835.00
2023-03-22T07:12:10.842Z,857.00
2023-03-22T07:16:10.838Z,839.00
2023-03-22T07:20:10.951Z,810.00
2023-03-22T07:24:11.026Z,779.00
2023-03-22T07:28:11.143Z,777.00
2023-03-22T07:32:11.363Z,738.00
2023-03-22T07:36:11.501Z,726.00
2023-03-22T07:40:11.645Z,822.00
2023-03-22T07:44:18.011Z,797.00
2023-03-22T07:48:12.911Z,770.00
2023-03-22T07:52:11.736Z,717.00
2023-03-22T07:56:11.731Z,829.00
2023-03-22T08:00:11.680Z,748.00
2023-03-22T08:04:11.718Z,760.00
2023-03-22T08:08:11.742Z,807.00
2023-03-22T08:12:11.740Z,742.00
2023-03-22T08:16:11.911Z,829.00
2023-03-22T08:20:11.812Z,837.00
2023-03-22T08:24:12.048Z,849.00
2023-03-22T08:28:11.902Z,852.00
2023-03-22T08:32:12.076Z,740.00
2023-03-22T08:36:11.976Z,785.00
2023-03-22T08:40:12.131Z,794.00
2023-03-22T08:44:12.106Z,807.00
2023-03-22T08:48:12.277Z,806.00
2023-03-22T08:52:12.381Z,783.00
2023-03-22T08:56:12.075Z,823.00
2023-03-22T09:00:13.180Z,839.00
2023-03-22T09:04:12.236Z,874.00
2023-03-22T09:08:18.352Z,862.00
2023-03-22T09:12:13.292Z,871.00
2023-03-22T09:16:12.316Z,867.00
2023-03-22T09:20:13.313Z,883.00
2023-03-22T09:24:12.291Z,1015.00
2023-03-22T09:28:12.469Z,702.00
2023-03-22T09:32:12.452Z,630.00
2023-03-22T09:36:12.498Z,524.00
2023-03-22T09:40:12.665Z,491.00
2023-03-22T09:44:12.798Z,585.00
2023-03-22T09:48:13.100Z,548.00
2023-03-22T09:52:13.193Z,594.00
2023-03-22T09:56:13.231Z,666.00
2023-03-22T10:00:13.260Z,709.00
2023-03-22T10:04:14.239Z,745.00
2023-03-22T10:08:13.410Z,784.00
2023-03-22T10:12:19.944Z,694.00
2023-03-22T10:16:13.425Z,781.00
2023-03-22T10:20:13.334Z,783.00
2023-03-22T10:24:13.259Z,776.00
2023-03-22T10:28:22.877Z,789.00
2023-03-22T10:32:13.220Z,717.00
2023-03-22T10:36:13.404Z,900.00
2023-03-22T10:40:13.119Z,847.00
2023-03-22T10:44:13.096Z,845.00
2023-03-22T10:48:13.179Z,835.00
2023-03-22T10:52:13.078Z,787.00
2023-03-22T10:56:12.980Z,812.00
2023-03-22T11:00:13.175Z,802.00
2023-03-22T11:04:13.395Z,797.00
2023-03-22T11:08:13.305Z,796.00
2023-03-22T11:12:13.237Z,806.00
2023-03-22T11:16:13.247Z,770.00
2023-03-22T11:20:13.247Z,810.00
2023-03-22T11:24:13.199Z,725.00
2023-03-22T11:28:13.477Z,793.00
2023-03-22T11:32:13.143Z,707.00
2023-03-22T11:36:13.073Z,781.00
2023-03-22T11:40:13.004Z,824.00
2023-03-22T11:44:12.977Z,808.00
2023-03-22T11:48:13.047Z,812.00
2023-03-22T11:52:12.908Z,832.00
2023-03-22T11:56:12.895Z,835.00
2023-03-22T12:00:13.106Z,841.00
2023-03-22T12:04:13.182Z,842.00
2023-03-22T12:08:13.342Z,842.00
2023-03-22T12:12:13.456Z,844.00
2023-03-22T12:16:13.939Z,876.00
2023-03-22T12:20:13.756Z,840.00
2023-03-22T12:24:13.866Z,855.00
2023-03-22T12:28:13.990Z,784.00
2023-03-22T12:32:14.090Z,734.00
2023-03-22T12:36:14.339Z,685.00
2023-03-22T12:40:14.892Z,636.00
2023-03-22T12:44:15.552Z,607.00
2023-03-22T12:48:15.166Z,581.00
2023-03-22T12:52:15.040Z,556.00
2023-03-22T12:56:15.234Z,528.00
2023-03-22T13:00:15.436Z,521.00
2023-03-22T13:04:15.703Z,515.00
2023-03-22T13:08:15.818Z,500.00
2023-03-22T13:12:15.992Z,484.00
2023-03-22T13:16:16.174Z,477.00
2023-03-22T13:20:16.101Z,465.00
2023-03-22T13:24:16.094Z,458.00
2023-03-22T13:28:16.051Z,456.00
2023-03-22T13:32:16.074Z,455.00
2023-03-22T13:36:16.033Z,448.00
2023-03-22T13:40:15.995Z,445.00
2023-03-22T13:44:15.883Z,444.00
2023-03-22T13:48:15.898Z,442.00
2023-03-22T13:52:15.875Z,437.00
2023-03-22T13:56:15.773Z,434.00
2023-03-22T14:00:16.817Z,430.00
2023-03-22T14:04:15.770Z,426.00
2023-03-22T14:08:15.720Z,425.00
2023-03-22T14:12:15.635Z,425.00
2023-03-22T14:16:15.652Z,422.00
2023-03-22T14:20:15.589Z,426.00
2023-03-22T14:49:15.991Z,432.00
2023-03-22T14:53:15.935Z,429.00
2023-03-22T14:57:16.737Z,425.00
2023-03-22T15:01:15.910Z,427.00
2023-03-22T15:05:15.815Z,428.00
2023-03-22T15:09:15.921Z,427.00
2023-03-22T15:13:15.893Z,435.00
2023-03-22T15:17:15.818Z,432.00
2023-03-22T15:21:15.789Z,430.00
2023-03-22T15:25:15.755Z,430.00
2023-03-22T15:29:15.693Z,433.00
2023-03-22T15:33:15.719Z,438.00
2023-03-22T15:37:15.686Z,441.00
2023-03-22T15:41:15.634Z,442.00
2023-03-22T15:45:15.593Z,444.00
2023-03-22T15:49:15.586Z,447.00
2023-03-22T15:53:15.506Z,446.00
2023-03-22T15:57:15.526Z,447.00
2023-03-22T16:01:15.448Z,443.00
2023-03-22T16:05:15.628Z,444.00
2023-03-22T16:09:15.624Z,440.00
2023-03-22T16:13:15.750Z,439.00
2023-03-22T16:17:15.492Z,434.00
2023-03-22T16:21:15.488Z,436.00
2023-03-22T16:25:15.463Z,436.00
2023-03-22T16:29:15.426Z,443.00
2023-03-22T16:33:15.357Z,469.00
2023-03-22T16:37:15.357Z,466.00
2023-03-22T16:41:15.314Z,459.00
2023-03-22T16:45:15.281Z,454.00
2023-03-22T16:49:15.470Z,456.00
2023-03-22T16:53:15.696Z,450.00
2023-03-22T16:57:15.732Z,448.00
2023-03-22T17:01:15.658Z,444.00
2023-03-22T17:05:15.789Z,443.00
2023-03-22T17:09:15.932Z,442.00
2023-03-22T17:13:16.108Z,441.00
2023-03-22T17:17:16.074Z,437.00
2023-03-22T17:21:15.994Z,429.00
2023-03-22T17:25:15.956Z,431.00
2023-03-22T17:29:15.957Z,433.00
2023-03-22T17:33:16.032Z,430.00
2023-03-22T17:37:15.897Z,426.00
2023-03-22T17:41:15.782Z,428.00
2023-03-22T17:45:15.793Z,430.00
2023-03-22T17:49:15.777Z,429.00
2023-03-22T17:53:35.428Z,429.00
2023-03-22T18:01:16.706Z,431.00
2023-03-22T18:05:15.717Z,433.00
2023-03-22T18:09:15.605Z,434.00
2023-03-22T18:13:15.511Z,431.00
2023-03-22T18:17:15.521Z,435.00
2023-03-22T18:21:15.635Z,431.00
2023-03-22T18:25:15.761Z,430.00
2023-03-22T18:29:15.738Z,426.00
2023-03-22T18:33:15.873Z,423.00
2023-03-22T18:37:16.016Z,425.00
2023-03-22T18:45:16.113Z,428.00
2023-03-22T18:49:16.019Z,429.00
2023-03-22T18:57:20.436Z,426.00
2023-03-22T19:01:16.964Z,431.00
2023-03-22T19:05:15.824Z,427.00
2023-03-22T19:09:15.806Z,438.00
2023-03-22T19:13:15.783Z,439.00
2023-03-22T19:17:15.772Z,446.00
2023-03-22T19:21:26.649Z,455.00
2023-03-22T19:25:16.688Z,459.00
2023-03-22T19:29:15.650Z,457.00
2023-03-22T19:33:27.693Z,452.00
2023-03-22T19:37:16.557Z,449.00
2023-03-22T19:41:43.044Z,445.00
2023-03-22T19:45:16.518Z,444.00
2023-03-22T19:49:15.478Z,441.00
2023-03-22T19:53:48.738Z,442.00
2023-03-22T19:57:16.378Z,445.00
2023-03-22T20:01:15.345Z,439.00
2023-03-22T20:05:18.050Z,435.00
2023-03-22T20:09:15.301Z,437.00
2023-03-22T20:13:15.276Z,434.00
2023-03-22T20:17:20.921Z,439.00
2023-03-22T20:21:16.204Z,439.00
2023-03-22T20:25:15.131Z,434.00
2023-03-22T20:29:15.144Z,442.00
2023-03-22T20:33:15.063Z,445.00
2023-03-22T20:37:15.012Z,440.00
2023-03-22T20:41:14.985Z,437.00
2023-03-22T20:45:14.936Z,439.00
2023-03-22T20:49:14.959Z,439.00
2023-03-22T20:53:14.882Z,444.00
2023-03-22T20:57:14.862Z,441.00
2023-03-22T21:01:14.806Z,441.00
2023-03-22T21:05:14.763Z,441.00
2023-03-22T21:09:14.726Z,442.00
2023-03-22T21:13:14.715Z,440.00
2023-03-22T21:17:14.838Z,438.00
2023-03-22T21:21:14.825Z,437.00
2023-03-22T21:25:14.847Z,436.00
2023-03-22T21:29:14.825Z,440.00
2023-03-22T21:33:14.907Z,438.00
2023-03-22T21:37:14.884Z,440.00
2023-03-22T21:41:15.023Z,446.00
2023-03-22T21:45:15.048Z,449.00
2023-03-22T21:49:15.070Z,449.00
2023-03-22T21:57:15.042Z,448.00
2023-03-22T22:01:15.101Z,446.00
2023-03-22T22:05:15.191Z,443.00
2023-03-22T22:09:15.153Z,440.00
2023-03-22T22:13:15.155Z,439.00
2023-03-22T22:17:15.263Z,438.00
2023-03-22T22:21:15.286Z,441.00
2023-03-22T22:25:15.310Z,439.00
2023-03-22T22:29:15.379Z,438.00
2023-03-22T22:33:15.518Z,435.00
2023-03-22T22:37:15.645Z,438.00
2023-03-22T22:41:15.843Z,434.00
2023-03-22T22:45:15.902Z,433.00
2023-03-22T22:49:15.928Z,435.00
2023-03-22T22:53:16.350Z,434.00
2023-03-22T22:57:16.148Z,438.00
2023-03-22T23:01:18.735Z,442.00
2023-03-22T23:05:16.400Z,446.00
2023-03-22T23:09:16.582Z,447.00
2023-03-22T23:13:16.599Z,443.00
2023-03-22T23:17:16.633Z,445.00
2023-03-22T23:21:16.718Z,446.00
2023-03-22T23:25:16.785Z,442.00
2023-03-22T23:29:16.815Z,445.00
2023-03-22T23:33:16.917Z,443.00
2023-03-22T23:37:16.945Z,443.00
2023-03-22T23:41:17.062Z,443.00
2023-03-22T23:45:17.074Z,443.00
2023-03-22T23:49:17.152Z,442.00
2023-03-22T23:53:17.238Z,443.00
2023-03-22T23:57:17.267Z,446.00
